Terminal Aerodrome Forecast
Issued by NWS

Home | Current Version | Previous Version | Graphics & Text | Print | Product List | Glossary On
Versions: 1 2 3 4 5 6 7 8 9 10 11 12 13 14 15 16 17 18 19 20
733
FTUS43 KTOP 240233 AAA
TAFMHK
TAF AMD
KMHK 240233Z 2403/2424 03011KT P6SM VCSH BKN020
     FM240400 36015G23KT P6SM BKN015
     FM240800 30015G23KT P6SM SCT006 BKN011
     FM241500 30016G24KT P6SM VCSH BKN011
     FM241800 32016G24KT P6SM BKN010=

USA.gov is the U.S. government's official web portal to all federal, state and local government web resources and services.